createdAt,value
2022-10-22T00:01:05.130Z,9.25
2022-10-22T00:03:32.074Z,9.23
2022-10-22T00:05:58.808Z,9.22
2022-10-22T00:08:25.805Z,9.21
2022-10-22T00:10:53.040Z,9.21
2022-10-22T00:13:20.104Z,9.17
2022-10-22T00:15:46.942Z,9.16
2022-10-22T00:18:14.225Z,9.13
2022-10-22T00:20:41.142Z,9.12
2022-10-22T00:23:07.908Z,9.14
2022-10-22T00:25:35.506Z,9.12
2022-10-22T00:28:02.832Z,9.08
2022-10-22T00:30:29.685Z,9.05
2022-10-22T00:32:56.406Z,9.06
2022-10-22T00:35:23.250Z,9.03
2022-10-22T00:37:50.006Z,9.02
2022-10-22T00:40:16.892Z,9.02
2022-10-22T00:42:44.024Z,8.97
2022-10-22T00:45:10.888Z,8.94
2022-10-22T00:47:41.404Z,8.92
2022-10-22T00:50:11.769Z,8.93
2022-10-22T00:52:39.242Z,8.91
2022-10-22T00:55:06.732Z,8.90
2022-10-22T00:57:34.804Z,8.89
2022-10-22T01:00:01.893Z,8.91
2022-10-22T01:02:30.122Z,8.88
2022-10-22T01:04:57.306Z,8.86
2022-10-22T01:07:24.563Z,8.84
2022-10-22T01:10:01.035Z,8.79
2022-10-22T01:12:43.207Z,8.76
2022-10-22T01:15:23.848Z,8.73
2022-10-22T01:18:07.087Z,8.74
2022-10-22T01:20:52.877Z,8.71
2022-10-22T01:23:38.464Z,8.72
2022-10-22T01:28:56.653Z,8.71
2022-10-22T01:31:25.674Z,8.69
2022-10-22T01:33:53.833Z,8.71
2022-10-22T01:36:21.488Z,8.65
2022-10-22T01:38:49.586Z,8.67
2022-10-22T01:41:16.611Z,8.67
2022-10-22T01:43:43.343Z,8.64
2022-10-22T01:46:10.641Z,8.65
2022-10-22T01:48:45.613Z,8.62
2022-10-22T01:51:31.403Z,8.58
2022-10-22T01:54:06.808Z,8.53
2022-10-22T01:56:41.297Z,8.53
2022-10-22T01:59:15.752Z,8.54
2022-10-22T02:01:49.255Z,8.54
2022-10-22T02:04:23.294Z,8.54
2022-10-22T02:06:52.159Z,8.51
2022-10-22T02:09:20.439Z,8.47
2022-10-22T02:11:47.740Z,8.47
2022-10-22T02:14:16.408Z,8.49
2022-10-22T02:16:45.577Z,8.47
2022-10-22T02:19:19.253Z,8.46
2022-10-22T02:21:46.199Z,8.42
2022-10-22T02:24:14.844Z,8.44
2022-10-22T02:26:45.926Z,8.41
2022-10-22T02:29:15.641Z,8.40
2022-10-22T02:31:44.620Z,8.37
2022-10-22T02:34:14.796Z,8.34
2022-10-22T02:36:46.665Z,8.33
2022-10-22T02:41:43.369Z,8.30
2022-10-22T02:44:10.977Z,8.32
2022-10-22T02:46:38.665Z,8.30
2022-10-22T02:49:05.625Z,8.33
2022-10-22T02:51:32.401Z,8.30
2022-10-22T02:53:59.176Z,8.27
2022-10-22T02:56:25.955Z,8.26
2022-10-22T02:58:52.780Z,8.27
2022-10-22T03:01:19.529Z,8.24
2022-10-22T03:03:46.373Z,8.26
2022-10-22T03:06:13.279Z,8.23
2022-10-22T03:08:40.398Z,8.21
2022-10-22T03:11:07.238Z,8.21
2022-10-22T03:13:33.946Z,8.20
2022-10-22T03:16:00.919Z,8.19
2022-10-22T03:18:27.722Z,8.20
2022-10-22T03:21:02.267Z,8.20
2022-10-22T03:23:29.052Z,8.19
2022-10-22T03:25:55.799Z,8.18
2022-10-22T03:28:24.332Z,8.19
2022-10-22T03:30:51.088Z,8.18
2022-10-22T03:33:17.800Z,8.15
2022-10-22T03:35:46.768Z,8.17
2022-10-22T03:38:14.590Z,8.14
2022-10-22T03:40:42.639Z,8.13
2022-10-22T03:43:09.689Z,8.11
2022-10-22T03:48:09.012Z,8.09
2022-10-22T03:50:36.019Z,8.06
2022-10-22T03:53:02.897Z,8.05
2022-10-22T03:55:29.735Z,8.03
2022-10-22T03:57:56.585Z,8.05
2022-10-22T04:00:23.322Z,8.06
2022-10-22T04:02:50.177Z,8.03
2022-10-22T04:05:17.241Z,8.05
2022-10-22T04:07:44.205Z,8.05
2022-10-22T04:10:11.023Z,8.06
2022-10-22T04:12:38.386Z,8.10
2022-10-22T04:15:05.435Z,8.11
2022-10-22T04:17:36.257Z,8.10
2022-10-22T04:20:04.126Z,8.10
2022-10-22T04:22:33.120Z,8.15
2022-10-22T04:25:00.046Z,8.13
2022-10-22T04:27:30.052Z,8.15
2022-10-22T04:29:56.814Z,8.15
2022-10-22T04:32:23.846Z,8.17
2022-10-22T04:34:50.529Z,8.19
2022-10-22T04:37:17.476Z,8.21
2022-10-22T04:39:44.378Z,8.23
2022-10-22T04:42:11.646Z,8.23
2022-10-22T04:44:38.562Z,8.22
2022-10-22T04:47:05.498Z,8.26
2022-10-22T04:49:32.243Z,8.29
2022-10-22T04:51:58.988Z,8.27
2022-10-22T04:54:29.043Z,8.26
2022-10-22T04:56:58.920Z,8.25
2022-10-22T04:59:26.646Z,8.27
2022-10-22T05:01:53.467Z,8.22
2022-10-22T05:04:20.442Z,8.21
2022-10-22T05:06:47.486Z,8.23
2022-10-22T05:09:16.235Z,8.26
2022-10-22T05:11:46.359Z,8.29
2022-10-22T05:14:13.304Z,8.30
2022-10-22T05:16:40.145Z,8.28
2022-10-22T05:19:08.271Z,8.26
2022-10-22T05:21:35.742Z,8.30
2022-10-22T05:24:02.593Z,8.33
2022-10-22T05:26:29.764Z,8.35
2022-10-22T05:28:57.019Z,8.33
2022-10-22T05:31:23.966Z,8.35
2022-10-22T05:33:50.795Z,8.38
2022-10-22T05:36:21.591Z,8.40
2022-10-22T05:38:48.754Z,8.41
2022-10-22T05:41:16.811Z,8.40
2022-10-22T05:43:43.978Z,8.40
2022-10-22T05:46:12.447Z,8.40
2022-10-22T05:48:39.657Z,8.42
2022-10-22T05:51:10.455Z,8.41
2022-10-22T05:53:38.802Z,8.43
2022-10-22T05:56:07.199Z,8.45
2022-10-22T05:58:34.645Z,8.43
2022-10-22T06:01:05.959Z,8.46
2022-10-22T06:03:33.087Z,8.49
2022-10-22T06:06:01.329Z,8.52
2022-10-22T06:08:28.703Z,8.57
2022-10-22T06:10:55.421Z,8.60
2022-10-22T06:13:22.956Z,8.62
2022-10-22T06:15:50.527Z,8.65
2022-10-22T06:18:17.326Z,8.68
2022-10-22T06:20:45.479Z,8.74
2022-10-22T06:23:12.333Z,8.75
2022-10-22T06:25:39.076Z,8.81
2022-10-22T06:28:05.960Z,8.83
2022-10-22T06:30:32.723Z,8.87
2022-10-22T06:32:59.563Z,8.92
2022-10-22T06:35:26.325Z,8.95
2022-10-22T06:37:53.106Z,8.97
2022-10-22T06:40:19.963Z,9.01
2022-10-22T06:42:46.914Z,9.02
2022-10-22T06:45:14.029Z,9.05
2022-10-22T06:47:41.260Z,9.11
2022-10-22T06:50:08.653Z,9.17
2022-10-22T06:55:19.763Z,9.26
2022-10-22T06:57:46.438Z,9.32
2022-10-22T07:00:13.955Z,9.35
2022-10-22T07:02:41.320Z,9.37
2022-10-22T07:05:08.586Z,9.35
2022-10-22T07:07:35.482Z,9.37
2022-10-22T07:10:02.494Z,9.42
2022-10-22T07:12:29.740Z,9.48
2022-10-22T07:14:56.560Z,9.53
2022-10-22T07:17:23.485Z,9.59
2022-10-22T07:19:51.351Z,9.64
2022-10-22T07:22:18.892Z,9.67
2022-10-22T07:24:45.635Z,9.74
2022-10-22T07:27:12.555Z,9.83
2022-10-22T07:29:39.410Z,9.87
2022-10-22T07:32:06.318Z,9.92
2022-10-22T07:34:33.150Z,10.02
2022-10-22T07:37:00.265Z,10.06
2022-10-22T07:39:27.334Z,10.15
2022-10-22T07:41:54.188Z,10.22
2022-10-22T07:44:20.948Z,10.31
2022-10-22T07:46:49.002Z,10.39
2022-10-22T07:49:16.058Z,10.45
2022-10-22T07:51:43.012Z,10.51
2022-10-22T07:54:10.025Z,10.56
2022-10-22T07:56:36.796Z,10.61
2022-10-22T07:59:03.602Z,10.68
2022-10-22T08:01:30.440Z,10.70
2022-10-22T08:03:57.193Z,10.77
2022-10-22T08:06:23.916Z,10.85
2022-10-22T08:08:51.014Z,10.90
2022-10-22T08:11:17.896Z,10.94
2022-10-22T08:13:45.843Z,10.98
2022-10-22T08:16:13.072Z,11.09
2022-10-22T08:18:39.948Z,11.17
2022-10-22T08:21:07.085Z,11.24
2022-10-22T08:23:34.527Z,11.32
2022-10-22T08:26:02.958Z,11.32
2022-10-22T08:28:31.249Z,11.38
2022-10-22T08:30:58.529Z,11.47
2022-10-22T08:33:25.265Z,11.54
2022-10-22T08:35:52.683Z,11.63
2022-10-22T08:38:19.902Z,11.67
2022-10-22T08:40:53.118Z,11.75
2022-10-22T08:43:23.185Z,11.81
2022-10-22T08:45:53.558Z,11.88
2022-10-22T08:48:36.583Z,11.98
2022-10-22T08:51:03.502Z,12.09
2022-10-22T08:53:30.283Z,12.16
2022-10-22T08:55:57.315Z,12.20
2022-10-22T08:58:24.273Z,12.23
2022-10-22T09:01:02.145Z,12.33
2022-10-22T09:03:32.069Z,12.40
2022-10-22T09:06:05.627Z,12.48
2022-10-22T09:08:32.686Z,12.54
2022-10-22T09:11:06.072Z,12.61
2022-10-22T09:13:33.247Z,12.63
2022-10-22T09:16:01.377Z,12.66
2022-10-22T09:18:44.875Z,12.69
2022-10-22T09:21:26.727Z,12.73
2022-10-22T09:24:08.856Z,12.82
2022-10-22T09:26:37.874Z,12.87
2022-10-22T09:29:04.804Z,12.92
2022-10-22T09:31:32.943Z,12.99
2022-10-22T09:34:05.832Z,13.10
2022-10-22T09:36:33.450Z,13.16
2022-10-22T09:39:00.389Z,13.25
2022-10-22T09:41:29.829Z,13.31
2022-10-22T09:43:57.052Z,13.37
2022-10-22T09:46:25.518Z,13.41
2022-10-22T09:49:13.459Z,13.56
2022-10-22T09:51:54.457Z,13.65
2022-10-22T09:54:23.114Z,13.64
2022-10-22T09:56:57.350Z,13.72
2022-10-22T09:59:29.134Z,13.79
2022-10-22T10:02:37.467Z,13.87
2022-10-22T10:05:06.751Z,13.95
2022-10-22T10:07:34.606Z,14.03
2022-10-22T10:10:02.005Z,14.09
2022-10-22T10:12:34.998Z,14.13
2022-10-22T10:15:16.759Z,14.19
2022-10-22T10:17:43.843Z,14.22
2022-10-22T10:20:11.138Z,14.30
2022-10-22T10:22:41.096Z,14.36
2022-10-22T10:25:08.513Z,14.41
2022-10-22T10:27:37.090Z,14.47
2022-10-22T10:30:09.793Z,14.54
2022-10-22T10:32:48.229Z,14.60
2022-10-22T10:35:25.602Z,14.64
2022-10-22T10:37:52.313Z,14.66
2022-10-22T10:40:33.294Z,14.67
2022-10-22T10:43:00.221Z,14.69
2022-10-22T10:45:30.052Z,14.71
2022-10-22T10:48:00.153Z,14.72
2022-10-22T10:50:30.985Z,14.72
2022-10-22T10:53:06.531Z,14.80
2022-10-22T10:55:42.008Z,14.86
2022-10-22T10:58:24.428Z,14.93
2022-10-22T11:00:59.311Z,14.99
2022-10-22T11:03:26.187Z,15.01
2022-10-22T11:06:00.143Z,15.05
2022-10-22T11:08:36.015Z,15.12
2022-10-22T11:11:06.523Z,15.15
2022-10-22T11:13:37.003Z,15.20
2022-10-22T11:16:19.345Z,15.24
2022-10-22T11:18:55.175Z,15.29
2022-10-22T11:21:25.534Z,15.35
2022-10-22T11:24:14.030Z,15.43
2022-10-22T11:26:59.623Z,15.48
2022-10-22T11:29:32.838Z,15.54
2022-10-22T11:32:02.383Z,15.58
2022-10-22T11:34:36.124Z,15.59
2022-10-22T11:37:05.048Z,15.63
2022-10-22T11:39:34.522Z,15.63
2022-10-22T11:42:03.922Z,15.72
2022-10-22T11:44:32.983Z,15.77
2022-10-22T11:47:08.764Z,15.82
2022-10-22T11:49:43.933Z,15.88
2022-10-22T11:52:23.239Z,15.94
2022-10-22T11:54:53.631Z,15.98
2022-10-22T11:57:26.303Z,16.00
2022-10-22T11:59:56.119Z,16.01
2022-10-22T12:02:24.230Z,16.06
2022-10-22T12:04:51.278Z,16.09
2022-10-22T12:07:33.059Z,16.16
2022-10-22T12:10:05.406Z,16.21
2022-10-22T12:12:35.932Z,16.23
2022-10-22T12:15:03.914Z,16.24
2022-10-22T12:17:31.356Z,16.25
2022-10-22T12:20:02.377Z,16.28
2022-10-22T12:22:37.338Z,16.31
2022-10-22T12:25:18.275Z,16.39
2022-10-22T12:27:51.180Z,16.44
2022-10-22T12:30:17.992Z,16.46
2022-10-22T12:32:45.275Z,16.49
2022-10-22T12:35:16.336Z,16.56
2022-10-22T12:37:43.484Z,16.62
2022-10-22T12:40:30.143Z,16.74
2022-10-22T12:42:58.463Z,16.78
2022-10-22T12:45:30.390Z,16.78
2022-10-22T12:47:59.124Z,16.81
2022-10-22T12:50:33.142Z,16.81
2022-10-22T12:53:00.289Z,16.86
2022-10-22T12:55:27.777Z,16.90
2022-10-22T12:57:54.753Z,16.91
2022-10-22T13:00:31.927Z,16.95
2022-10-22T13:03:02.616Z,16.95
2022-10-22T13:05:39.051Z,16.96
2022-10-22T13:08:09.382Z,17.01
2022-10-22T13:10:37.795Z,17.07
2022-10-22T13:13:06.957Z,17.08
2022-10-22T13:15:34.670Z,17.08
2022-10-22T13:18:18.309Z,17.09
2022-10-22T13:20:54.312Z,17.11
2022-10-22T13:23:22.821Z,17.18
2022-10-22T13:26:00.596Z,17.25
2022-10-22T13:28:27.938Z,17.27
2022-10-22T13:30:59.324Z,17.28
2022-10-22T13:33:40.548Z,17.29
2022-10-22T13:36:09.927Z,17.27
2022-10-22T13:38:36.831Z,17.26
2022-10-22T13:41:04.878Z,17.27
2022-10-22T13:43:31.535Z,17.21
2022-10-22T13:45:59.362Z,17.27
2022-10-22T13:48:27.896Z,17.28
2022-10-22T13:50:54.950Z,17.30
2022-10-22T13:53:23.528Z,17.29
2022-10-22T13:55:50.542Z,17.30
2022-10-22T13:58:18.871Z,17.30
2022-10-22T14:00:47.614Z,17.30
2022-10-22T14:03:16.530Z,17.30
2022-10-22T14:05:43.507Z,17.29
2022-10-22T14:08:15.527Z,17.29
2022-10-22T14:10:42.576Z,17.28
2022-10-22T14:13:10.737Z,17.27
2022-10-22T14:15:37.806Z,17.27
2022-10-22T14:18:05.936Z,17.26
2022-10-22T14:20:33.956Z,17.27
2022-10-22T14:23:05.285Z,17.25
2022-10-22T14:25:32.259Z,17.25
2022-10-22T14:27:58.972Z,17.24
2022-10-22T14:30:26.330Z,17.23
2022-10-22T14:32:53.106Z,17.22
2022-10-22T14:35:24.032Z,17.22
2022-10-22T14:37:51.401Z,17.19
2022-10-22T14:40:19.426Z,17.18
2022-10-22T14:42:48.227Z,17.17
2022-10-22T14:45:22.976Z,17.15
2022-10-22T14:47:50.855Z,17.14
2022-10-22T14:50:18.573Z,17.12
2022-10-22T14:52:45.576Z,17.11
2022-10-22T14:55:14.199Z,17.10
2022-10-22T14:57:41.691Z,17.08
2022-10-22T15:00:09.836Z,17.07
2022-10-22T15:02:36.637Z,17.05
2022-10-22T15:05:03.720Z,16.79
2022-10-22T15:07:30.760Z,16.99
2022-10-22T15:09:57.542Z,16.95
2022-10-22T15:12:24.568Z,16.90
2022-10-22T15:14:51.409Z,16.87
2022-10-22T15:17:18.665Z,16.83
2022-10-22T15:19:45.431Z,16.78
2022-10-22T15:22:13.797Z,16.73
2022-10-22T15:24:43.781Z,16.68
2022-10-22T15:27:13.933Z,16.63
2022-10-22T15:29:41.453Z,16.56
2022-10-22T15:32:10.465Z,16.50
2022-10-22T15:34:38.825Z,16.43
2022-10-22T15:37:07.091Z,16.38
2022-10-22T15:39:34.255Z,16.30
2022-10-22T15:42:01.457Z,16.25
2022-10-22T15:44:34.022Z,16.20
2022-10-22T15:47:03.499Z,16.13
2022-10-22T15:49:30.580Z,16.09
2022-10-22T15:51:57.561Z,16.04
2022-10-22T15:54:28.963Z,15.99
2022-10-22T15:56:57.009Z,15.95
2022-10-22T15:59:24.148Z,15.89
2022-10-22T16:01:51.504Z,15.84
2022-10-22T16:04:18.442Z,15.80
2022-10-22T16:06:46.446Z,15.74
2022-10-22T16:09:17.906Z,15.70
2022-10-22T16:11:45.364Z,15.65
2022-10-22T16:14:13.553Z,15.44
2022-10-22T16:16:42.956Z,15.55
2022-10-22T16:19:11.119Z,15.50
2022-10-22T16:21:38.107Z,15.47
2022-10-22T16:24:06.469Z,15.43
2022-10-22T16:26:33.674Z,15.38
2022-10-22T16:29:00.569Z,15.36
2022-10-22T16:31:27.350Z,15.31
2022-10-22T16:33:54.811Z,15.29
2022-10-22T16:36:21.976Z,15.29
2022-10-22T16:38:48.862Z,15.25
2022-10-22T16:41:16.896Z,15.24
2022-10-22T16:43:45.294Z,15.24
2022-10-22T16:46:12.047Z,15.23
2022-10-22T16:48:42.947Z,15.22
2022-10-22T16:51:12.647Z,15.21
2022-10-22T16:53:39.658Z,15.20
2022-10-22T16:56:10.654Z,15.21
2022-10-22T16:58:37.997Z,15.18
2022-10-22T17:01:08.402Z,15.18
2022-10-22T17:03:37.066Z,15.21
2022-10-22T17:06:04.602Z,15.20
2022-10-22T17:08:33.821Z,15.18
2022-10-22T17:11:05.807Z,15.17
2022-10-22T17:13:32.527Z,15.17
2022-10-22T17:16:03.772Z,15.16
2022-10-22T17:18:31.050Z,15.16
2022-10-22T17:20:58.659Z,15.15
2022-10-22T17:23:25.852Z,15.14
2022-10-22T17:25:57.520Z,15.12
2022-10-22T17:28:24.799Z,15.10
2022-10-22T17:31:01.131Z,15.07
2022-10-22T17:33:27.967Z,15.04
2022-10-22T17:35:55.937Z,15.01
2022-10-22T17:38:22.773Z,14.97
2022-10-22T17:40:49.923Z,14.93
2022-10-22T17:43:16.741Z,14.87
2022-10-22T17:45:43.805Z,14.81
2022-10-22T17:48:10.862Z,14.78
2022-10-22T17:50:46.988Z,14.76
2022-10-22T17:53:16.663Z,14.69
2022-10-22T17:55:43.582Z,14.67
2022-10-22T17:58:10.240Z,14.63
2022-10-22T18:00:37.047Z,14.56
2022-10-22T18:03:04.122Z,14.54
2022-10-22T18:05:31.142Z,14.47
2022-10-22T18:07:57.825Z,14.45
2022-10-22T18:10:25.109Z,14.42
2022-10-22T18:12:51.855Z,14.40
2022-10-22T18:15:18.816Z,14.38
2022-10-22T18:17:47.165Z,14.33
2022-10-22T18:20:14.149Z,14.30
2022-10-22T18:22:42.259Z,14.28
2022-10-22T18:25:09.715Z,14.25
2022-10-22T18:27:37.147Z,14.23
2022-10-22T18:30:04.403Z,14.21
2022-10-22T18:32:32.999Z,14.19
2022-10-22T18:34:59.801Z,14.14
2022-10-22T18:37:26.558Z,14.12
2022-10-22T18:39:53.416Z,14.10
2022-10-22T18:42:20.191Z,14.07
2022-10-22T18:44:47.181Z,14.04
2022-10-22T18:47:14.056Z,14.01
2022-10-22T18:49:40.770Z,13.99
2022-10-22T18:52:07.817Z,13.96
2022-10-22T18:54:35.121Z,13.95
2022-10-22T18:57:03.251Z,13.92
2022-10-22T18:59:30.192Z,13.92
2022-10-22T19:01:59.459Z,13.89
2022-10-22T19:04:31.029Z,13.88
2022-10-22T19:06:58.410Z,13.83
2022-10-22T19:09:26.706Z,13.80
2022-10-22T19:11:53.575Z,13.78
2022-10-22T19:14:22.104Z,13.77
2022-10-22T19:16:49.561Z,13.73
2022-10-22T19:19:18.247Z,13.70
2022-10-22T19:21:45.631Z,13.66
2022-10-22T19:24:13.858Z,13.65
2022-10-22T19:26:40.670Z,13.62
2022-10-22T19:29:07.500Z,13.60
2022-10-22T19:31:34.392Z,13.56
2022-10-22T19:34:01.550Z,13.54
2022-10-22T19:36:30.123Z,13.52
2022-10-22T19:38:57.360Z,13.50
2022-10-22T19:41:25.427Z,13.44
2022-10-22T19:43:53.010Z,13.44
2022-10-22T19:46:20.613Z,13.43
2022-10-22T19:48:47.859Z,13.42
2022-10-22T19:51:16.179Z,13.43
2022-10-22T19:53:43.509Z,13.37
2022-10-22T19:56:11.248Z,13.38
2022-10-22T19:58:38.955Z,13.39
2022-10-22T20:01:06.897Z,13.39
2022-10-22T20:03:34.469Z,13.37
2022-10-22T20:06:01.484Z,13.36
2022-10-22T20:08:28.671Z,13.33
2022-10-22T20:10:55.510Z,13.28
2022-10-22T20:13:22.527Z,13.27
2022-10-22T20:15:51.485Z,13.26
2022-10-22T20:18:18.409Z,13.22
2022-10-22T20:20:45.312Z,13.22
2022-10-22T20:23:12.282Z,13.16
2022-10-22T20:25:43.030Z,13.12
2022-10-22T20:28:09.966Z,13.03
2022-10-22T20:30:40.864Z,13.00
2022-10-22T20:33:13.673Z,12.99
2022-10-22T20:35:40.464Z,13.01
2022-10-22T20:38:08.188Z,12.98
2022-10-22T20:40:35.142Z,12.97
2022-10-22T20:43:02.340Z,12.96
2022-10-22T20:45:29.295Z,12.94
2022-10-22T20:48:02.142Z,12.90
2022-10-22T20:50:31.628Z,12.88
2022-10-22T20:52:58.738Z,12.85
2022-10-22T20:55:25.646Z,12.84
2022-10-22T20:57:52.517Z,12.82
2022-10-22T21:00:19.234Z,12.80
2022-10-22T21:02:46.272Z,12.79
2022-10-22T21:05:12.999Z,12.78
2022-10-22T21:07:40.470Z,12.77
2022-10-22T21:10:07.699Z,12.74
2022-10-22T21:12:34.712Z,12.75
2022-10-22T21:15:01.497Z,12.75
2022-10-22T21:17:29.352Z,12.75
2022-10-22T21:19:56.411Z,12.73
2022-10-22T21:22:23.622Z,12.73
2022-10-22T21:24:50.476Z,12.70
2022-10-22T21:27:17.507Z,12.73
2022-10-22T21:29:44.296Z,12.67
2022-10-22T21:32:11.205Z,12.68
2022-10-22T21:34:39.098Z,12.68
2022-10-22T21:37:06.123Z,12.70
2022-10-22T21:39:33.072Z,12.70
2022-10-22T21:42:00.817Z,12.70
2022-10-22T21:44:27.673Z,12.67
2022-10-22T21:46:54.446Z,12.68
2022-10-22T21:49:21.652Z,12.64
2022-10-22T21:51:48.436Z,12.66
2022-10-22T21:54:15.179Z,12.61
2022-10-22T21:56:41.934Z,12.59
2022-10-22T21:59:09.098Z,12.57
2022-10-22T22:01:35.918Z,12.57
2022-10-22T22:04:03.399Z,12.57
2022-10-22T22:06:33.342Z,12.56
2022-10-22T22:09:00.992Z,12.57
2022-10-22T22:11:28.292Z,12.59
2022-10-22T22:13:56.156Z,12.54
2022-10-22T22:16:27.273Z,12.55
2022-10-22T22:18:56.700Z,12.54
2022-10-22T22:21:23.507Z,12.50
2022-10-22T22:23:50.672Z,12.49
2022-10-22T22:26:22.060Z,12.43
2022-10-22T22:28:50.742Z,12.40
2022-10-22T22:31:19.086Z,12.37
2022-10-22T22:33:45.806Z,12.32
2022-10-22T22:36:12.655Z,12.30
2022-10-22T22:38:39.721Z,12.25
2022-10-22T22:41:06.957Z,12.22
2022-10-22T22:43:34.286Z,12.18
2022-10-22T22:46:01.978Z,12.16
2022-10-22T22:48:28.906Z,12.13
2022-10-22T22:50:55.733Z,12.08
2022-10-22T22:53:22.779Z,12.11
2022-10-22T22:55:50.158Z,12.06
2022-10-22T22:58:19.201Z,12.08
2022-10-22T23:00:45.909Z,12.08
2022-10-22T23:03:12.718Z,12.07
2022-10-22T23:05:39.502Z,12.05
2022-10-22T23:08:06.297Z,12.03
2022-10-22T23:10:32.980Z,12.00
2022-10-22T23:13:00.220Z,12.00
2022-10-22T23:15:26.937Z,12.01
2022-10-22T23:17:53.847Z,11.98
2022-10-22T23:20:20.603Z,11.96
2022-10-22T23:22:47.490Z,11.93
2022-10-22T23:25:14.272Z,11.93
2022-10-22T23:27:41.209Z,11.92
2022-10-22T23:30:08.870Z,11.73
2022-10-22T23:32:35.830Z,11.90
2022-10-22T23:35:02.621Z,11.89
2022-10-22T23:37:29.824Z,11.89
2022-10-22T23:39:56.888Z,11.91
2022-10-22T23:42:23.574Z,11.90
2022-10-22T23:44:50.382Z,11.87
2022-10-22T23:47:17.106Z,11.83
2022-10-22T23:49:43.791Z,11.84
2022-10-22T23:52:10.598Z,11.81
2022-10-22T23:54:37.332Z,11.82
2022-10-22T23:57:04.179Z,11.80
2022-10-22T23:59:30.952Z,11.80
